sensor_id;sensor_type;location;lat;lon;timestamp;pressure;altitude;pressure_sealevel;temperature;humidity
51452;BME280;37521;52.020;-1.740;2024-03-02T00:01:16;97257.88;;;0.58;100.00
51452;BME280;37521;52.020;-1.740;2024-03-02T00:03:45;97269.31;;;0.53;100.00
51452;BME280;37521;52.020;-1.740;2024-03-02T00:06:14;97271.03;;;0.54;100.00
51452;BME280;37521;52.020;-1.740;2024-03-02T00:08:43;97265.66;;;0.58;100.00
51452;BME280;37521;52.020;-1.740;2024-03-02T00:11:12;97262.00;;;0.62;100.00
51452;BME280;37521;52.020;-1.740;2024-03-02T00:13:41;97260.06;;;0.65;100.00
51452;BME280;37521;52.020;-1.740;2024-03-02T00:16:11;97258.19;;;0.69;100.00
51452;BME280;37521;52.020;-1.740;2024-03-02T00:18:40;97268.47;;;0.70;100.00
51452;BME280;37521;52.020;-1.740;2024-03-02T00:21:10;97269.50;;;0.68;100.00
51452;BME280;37521;52.020;-1.740;2024-03-02T00:23:40;97266.72;;;0.71;100.00
51452;BME280;37521;52.020;-1.740;2024-03-02T00:26:11;97275.22;;;0.74;100.00
51452;BME280;37521;52.020;-1.740;2024-03-02T00:28:40;97268.47;;;0.70;100.00
51452;BME280;37521;52.020;-1.740;2024-03-02T00:31:13;97268.66;;;0.67;100.00
51452;BME280;37521;52.020;-1.740;2024-03-02T00:33:42;97265.44;;;0.62;100.00
51452;BME280;37521;52.020;-1.740;2024-03-02T00:36:13;97262.94;;;0.61;100.00
51452;BME280;37521;52.020;-1.740;2024-03-02T00:38:45;97266.41;;;0.60;100.00
51452;BME280;37521;52.020;-1.740;2024-03-02T00:41:17;97266.41;;;0.60;100.00
51452;BME280;37521;52.020;-1.740;2024-03-02T00:43:58;97263.06;;;0.58;100.00
51452;BME280;37521;52.020;-1.740;2024-03-02T00:46:30;97261.53;;;0.53;100.00
51452;BME280;37521;52.020;-1.740;2024-03-02T00:49:03;97266.44;;;0.42;100.00
51452;BME280;37521;52.020;-1.740;2024-03-02T00:51:33;97262.28;;;0.38;100.00
51452;BME280;37521;52.020;-1.740;2024-03-02T00:54:04;97266.72;;;0.36;100.00
51452;BME280;37521;52.020;-1.740;2024-03-02T00:56:34;97262.34;;;0.19;100.00
51452;BME280;37521;52.020;-1.740;2024-03-02T00:59:03;97249.75;;;0.12;100.00
51452;BME280;37521;52.020;-1.740;2024-03-02T01:01:34;97255.03;;;0.10;100.00
51452;BME280;37521;52.020;-1.740;2024-03-02T01:04:03;97247.75;;;-0.01;100.00
51452;BME280;37521;52.020;-1.740;2024-03-02T01:06:32;97246.25;;;-0.05;100.00
51452;BME280;37521;52.020;-1.740;2024-03-02T01:09:01;97242.09;;;-0.09;100.00
51452;BME280;37521;52.020;-1.740;2024-03-02T01:11:31;97242.94;;;-0.08;100.00
51452;BME280;37521;52.020;-1.740;2024-03-02T01:14:00;97245.47;;;-0.07;100.00
51452;BME280;37521;52.020;-1.740;2024-03-02T01:16:28;97241.19;;;-0.08;100.00
51452;BME280;37521;52.020;-1.740;2024-03-02T01:18:59;97238.47;;;-0.05;100.00
51452;BME280;37521;52.020;-1.740;2024-03-02T01:21:28;97241.81;;;-0.03;100.00
51452;BME280;37521;52.020;-1.740;2024-03-02T01:23:56;97247.06;;;-0.04;100.00
51452;BME280;37521;52.020;-1.740;2024-03-02T01:26:25;97238.16;;;0.02;100.00
51452;BME280;37521;52.020;-1.740;2024-03-02T01:28:54;97238.16;;;0.02;100.00
51452;BME280;37521;52.020;-1.740;2024-03-02T01:31:23;97233.66;;;0.05;100.00
51452;BME280;37521;52.020;-1.740;2024-03-02T01:33:51;97237.78;;;0.09;100.00
51452;BME280;37521;52.020;-1.740;2024-03-02T01:36:21;97233.56;;;0.07;100.00
51452;BME280;37521;52.020;-1.740;2024-03-02T01:38:51;97223.19;;;0.07;100.00
51452;BME280;37521;52.020;-1.740;2024-03-02T01:41:19;97222.00;;;0.14;100.00
51452;BME280;37521;52.020;-1.740;2024-03-02T01:43:48;97217.50;;;0.17;100.00
51452;BME280;37521;52.020;-1.740;2024-03-02T01:46:17;97221.69;;;0.20;100.00
51452;BME280;37521;52.020;-1.740;2024-03-02T01:48:46;97227.56;;;0.23;100.00
51452;BME280;37521;52.020;-1.740;2024-03-02T01:51:15;97219.56;;;0.28;100.00
51452;BME280;37521;52.020;-1.740;2024-03-02T01:53:45;97217.91;;;0.27;100.00
51452;BME280;37521;52.020;-1.740;2024-03-02T01:56:14;97215.88;;;0.32;100.00
51452;BME280;37521;52.020;-1.740;2024-03-02T01:58:42;97218.47;;;0.32;100.00
51452;BME280;37521;52.020;-1.740;2024-03-02T02:01:12;97211.53;;;0.33;100.00
51452;BME280;37521;52.020;-1.740;2024-03-02T02:03:40;97209.78;;;0.33;100.00
51452;BME280;37521;52.020;-1.740;2024-03-02T02:06:09;97204.66;;;0.32;100.00
51452;BME280;37521;52.020;-1.740;2024-03-02T02:08:38;97208.88;;;0.34;100.00
51452;BME280;37521;52.020;-1.740;2024-03-02T02:11:08;97212.53;;;0.30;100.00
51452;BME280;37521;52.020;-1.740;2024-03-02T02:13:37;97205.50;;;0.32;100.00
51452;BME280;37521;52.020;-1.740;2024-03-02T02:16:07;97199.47;;;0.32;100.00
51452;BME280;37521;52.020;-1.740;2024-03-02T02:18:36;97198.63;;;0.31;100.00
51452;BME280;37521;52.020;-1.740;2024-03-02T02:21:05;97195.28;;;0.29;100.00
51452;BME280;37521;52.020;-1.740;2024-03-02T02:23:35;97187.50;;;0.29;100.00
51452;BME280;37521;52.020;-1.740;2024-03-02T02:26:04;97188.44;;;0.28;100.00
51452;BME280;37521;52.020;-1.740;2024-03-02T02:28:32;97199.72;;;0.27;100.00
51452;BME280;37521;52.020;-1.740;2024-03-02T02:31:01;97190.09;;;0.29;100.00
51452;BME280;37521;52.020;-1.740;2024-03-02T02:33:30;97184.75;;;0.32;100.00
51452;BME280;37521;52.020;-1.740;2024-03-02T02:35:59;97190.63;;;0.36;100.00
51452;BME280;37521;52.020;-1.740;2024-03-02T02:38:27;97187.03;;;0.38;100.00
51452;BME280;37521;52.020;-1.740;2024-03-02T02:40:58;97188.72;;;0.39;100.00
51452;BME280;37521;52.020;-1.740;2024-03-02T02:43:26;97188.78;;;0.38;100.00
51452;BME280;37521;52.020;-1.740;2024-03-02T02:45:55;97186.94;;;0.40;100.00
51452;BME280;37521;52.020;-1.740;2024-03-02T02:48:24;97183.47;;;0.41;100.00
51452;BME280;37521;52.020;-1.740;2024-03-02T02:50:53;97185.28;;;0.39;100.00
51452;BME280;37521;52.020;-1.740;2024-03-02T02:53:22;97174.75;;;0.42;100.00
51452;BME280;37521;52.020;-1.740;2024-03-02T02:55:51;97180.78;;;0.42;100.00
51452;BME280;37521;52.020;-1.740;2024-03-02T02:58:21;97182.44;;;0.43;100.00
51452;BME280;37521;52.020;-1.740;2024-03-02T03:00:50;97178.28;;;0.41;100.00
51452;BME280;37521;52.020;-1.740;2024-03-02T03:03:18;97175.59;;;0.42;100.00
51452;BME280;37521;52.020;-1.740;2024-03-02T03:05:48;97170.22;;;0.45;100.00
51452;BME280;37521;52.020;-1.740;2024-03-02T03:08:17;97173.75;;;0.44;100.00
51452;BME280;37521;52.020;-1.740;2024-03-02T03:10:46;97168.41;;;0.47;100.00
51452;BME280;37521;52.020;-1.740;2024-03-02T03:13:15;97160.53;;;0.49;100.00
51452;BME280;37521;52.020;-1.740;2024-03-02T03:15:45;97157.84;;;0.50;100.00
51452;BME280;37521;52.020;-1.740;2024-03-02T03:18:14;97163.03;;;0.50;100.00
51452;BME280;37521;52.020;-1.740;2024-03-02T03:20:43;97156.28;;;0.48;100.00
51452;BME280;37521;52.020;-1.740;2024-03-02T03:23:11;97150.16;;;0.49;100.00
51452;BME280;37521;52.020;-1.740;2024-03-02T03:25:42;97152.97;;;0.44;100.00
51452;BME280;37521;52.020;-1.740;2024-03-02T03:28:11;97149.47;;;0.45;100.00
51452;BME280;37521;52.020;-1.740;2024-03-02T03:30:40;97141.63;;;0.47;100.00
51452;BME280;37521;52.020;-1.740;2024-03-02T03:33:10;97150.16;;;0.49;100.00
51452;BME280;37521;52.020;-1.740;2024-03-02T03:35:39;97148.41;;;0.49;100.00
51452;BME280;37521;52.020;-1.740;2024-03-02T03:38:08;97144.88;;;0.50;100.00
51452;BME280;37521;52.020;-1.740;2024-03-02T03:40:36;97142.44;;;0.47;100.00
51452;BME280;37521;52.020;-1.740;2024-03-02T03:43:05;97132.22;;;0.44;100.00
51452;BME280;37521;52.020;-1.740;2024-03-02T03:45:34;97123.50;;;0.45;100.00
51452;BME280;37521;52.020;-1.740;2024-03-02T03:48:03;97125.19;;;0.46;100.00
51452;BME280;37521;52.020;-1.740;2024-03-02T03:50:33;97123.59;;;0.44;100.00
51452;BME280;37521;52.020;-1.740;2024-03-02T03:53:02;97120.75;;;0.48;100.00
51452;BME280;37521;52.020;-1.740;2024-03-02T03:55:31;97115.66;;;0.47;100.00
51452;BME280;37521;52.020;-1.740;2024-03-02T03:58:00;97112.28;;;0.45;100.00
51452;BME280;37521;52.020;-1.740;2024-03-02T04:00:27;97109.59;;;0.46;100.00
51452;BME280;37521;52.020;-1.740;2024-03-02T04:02:56;97115.66;;;0.47;100.00
51452;BME280;37521;52.020;-1.740;2024-03-02T04:05:25;97110.28;;;0.50;100.00
51452;BME280;37521;52.020;-1.740;2024-03-02T04:07:56;97111.13;;;0.50;100.00
51452;BME280;37521;52.020;-1.740;2024-03-02T04:10:24;97115.41;;;0.51;100.00
51452;BME280;37521;52.020;-1.740;2024-03-02T04:12:53;97116.50;;;0.47;100.00
51452;BME280;37521;52.020;-1.740;2024-03-02T04:15:22;97114.53;;;0.35;100.00
51452;BME280;37521;52.020;-1.740;2024-03-02T04:17:51;97114.09;;;0.27;100.00
51452;BME280;37521;52.020;-1.740;2024-03-02T04:20:20;97114.53;;;0.18;100.00
51452;BME280;37521;52.020;-1.740;2024-03-02T04:22:48;97108.47;;;0.02;100.00
51452;BME280;37521;52.020;-1.740;2024-03-02T04:25:19;97106.03;;;-0.19;100.00
51452;BME280;37521;52.020;-1.740;2024-03-02T04:27:48;97110.75;;;-0.44;100.00
51452;BME280;37521;52.020;-1.740;2024-03-02T04:30:17;97113.47;;;-0.65;100.00
51452;BME280;37521;52.020;-1.740;2024-03-02T04:32:46;97123.41;;;-0.74;100.00
51452;BME280;37521;52.020;-1.740;2024-03-02T04:35:16;97118.75;;;-0.85;100.00
51452;BME280;37521;52.020;-1.740;2024-03-02T04:37:45;97109.22;;;-1.03;100.00
51452;BME280;37521;52.020;-1.740;2024-03-02T04:40:14;97116.66;;;-1.15;100.00
51452;BME280;37521;52.020;-1.740;2024-03-02T04:42:44;97114.13;;;-1.16;100.00
51452;BME280;37521;52.020;-1.740;2024-03-02T04:45:13;97106.16;;;-1.12;100.00
51452;BME280;37521;52.020;-1.740;2024-03-02T04:47:41;97102.59;;;-1.09;100.00
51452;BME280;37521;52.020;-1.740;2024-03-02T04:50:13;97092.78;;;-1.02;100.00
51452;BME280;37521;52.020;-1.740;2024-03-02T04:52:42;97090.66;;;-0.94;100.00
51452;BME280;37521;52.020;-1.740;2024-03-02T04:55:11;97096.41;;;-0.88;100.00
51452;BME280;37521;52.020;-1.740;2024-03-02T04:58:04;97085.00;;;-0.84;100.00
51452;BME280;37521;52.020;-1.740;2024-03-02T05:00:33;97083.94;;;-0.79;100.00
51452;BME280;37521;52.020;-1.740;2024-03-02T05:03:03;97090.50;;;-0.72;100.00
51452;BME280;37521;52.020;-1.740;2024-03-02T05:05:32;97087.75;;;-0.69;100.00
51452;BME280;37521;52.020;-1.740;2024-03-02T05:08:02;97080.81;;;-0.69;100.00
51452;BME280;37521;52.020;-1.740;2024-03-02T05:10:31;97078.03;;;-0.64;100.00
51452;BME280;37521;52.020;-1.740;2024-03-02T05:13:00;97073.69;;;-0.64;100.00
51452;BME280;37521;52.020;-1.740;2024-03-02T05:15:30;97075.22;;;-0.60;100.00
51452;BME280;37521;52.020;-1.740;2024-03-02T05:17:59;97061.19;;;-0.56;100.00
51452;BME280;37521;52.020;-1.740;2024-03-02T05:20:30;97060.88;;;-0.49;100.00
51452;BME280;37521;52.020;-1.740;2024-03-02T05:22:58;97051.75;;;-0.39;100.00
51452;BME280;37521;52.020;-1.740;2024-03-02T05:25:27;97053.25;;;-0.35;100.00
51452;BME280;37521;52.020;-1.740;2024-03-02T05:27:56;97040.91;;;-0.30;100.00
51452;BME280;37521;52.020;-1.740;2024-03-02T05:30:25;97043.03;;;-0.21;100.00
51452;BME280;37521;52.020;-1.740;2024-03-02T05:32:55;97032.50;;;-0.18;100.00
51452;BME280;37521;52.020;-1.740;2024-03-02T05:35:24;97037.69;;;-0.18;100.00
51452;BME280;37521;52.020;-1.740;2024-03-02T05:37:52;97028.09;;;-0.16;100.00
51452;BME280;37521;52.020;-1.740;2024-03-02T05:40:21;97019.25;;;-0.12;100.00
51452;BME280;37521;52.020;-1.740;2024-03-02T05:42:50;97015.56;;;-0.08;100.00
51452;BME280;37521;52.020;-1.740;2024-03-02T05:45:19;97010.06;;;-0.02;100.00
51452;BME280;37521;52.020;-1.740;2024-03-02T05:47:48;97019.97;;;0.08;100.00
51452;BME280;37521;52.020;-1.740;2024-03-02T05:50:18;97004.22;;;0.11;100.00
51452;BME280;37521;52.020;-1.740;2024-03-02T05:52:47;97004.84;;;0.16;100.00
51452;BME280;37521;52.020;-1.740;2024-03-02T05:55:16;97001.22;;;0.18;100.00
51452;BME280;37521;52.020;-1.740;2024-03-02T05:57:45;96994.03;;;0.23;100.00
51452;BME280;37521;52.020;-1.740;2024-03-02T06:00:26;97001.75;;;0.25;100.00
51452;BME280;37521;52.020;-1.740;2024-03-02T06:02:55;96996.09;;;0.34;100.00
51452;BME280;37521;52.020;-1.740;2024-03-02T06:05:25;96991.53;;;0.38;100.00
51452;BME280;37521;52.020;-1.740;2024-03-02T06:07:54;96994.81;;;0.41;100.00
51452;BME280;37521;52.020;-1.740;2024-03-02T06:10:23;96997.00;;;0.49;100.00
51452;BME280;37521;52.020;-1.740;2024-03-02T06:12:51;96998.59;;;0.51;100.00
51452;BME280;37521;52.020;-1.740;2024-03-02T06:15:20;97002.09;;;0.50;100.00
51452;BME280;37521;52.020;-1.740;2024-03-02T06:17:49;96998.09;;;0.45;100.00
51452;BME280;37521;52.020;-1.740;2024-03-02T06:20:18;96986.03;;;0.44;100.00
51452;BME280;37521;52.020;-1.740;2024-03-02T06:22:48;96986.13;;;0.42;100.00
51452;BME280;37521;52.020;-1.740;2024-03-02T06:25:17;96997.25;;;0.44;100.00
51452;BME280;37521;52.020;-1.740;2024-03-02T06:27:45;96998.09;;;0.45;100.00
51452;BME280;37521;52.020;-1.740;2024-03-02T06:30:14;96993.06;;;0.42;100.00
51452;BME280;37521;52.020;-1.740;2024-03-02T06:32:43;96997.44;;;0.41;100.00
51452;BME280;37521;52.020;-1.740;2024-03-02T06:35:12;96994.88;;;0.40;100.00
51452;BME280;37521;52.020;-1.740;2024-03-02T06:37:41;96995.81;;;0.39;100.00
51452;BME280;37521;52.020;-1.740;2024-03-02T06:40:11;96980.50;;;0.34;100.00
51452;BME280;37521;52.020;-1.740;2024-03-02T06:42:40;96978.81;;;0.33;100.00
51452;BME280;37521;52.020;-1.740;2024-03-02T06:45:09;96980.50;;;0.34;100.00
51452;BME280;37521;52.020;-1.740;2024-03-02T06:47:37;96986.44;;;0.36;100.00
51452;BME280;37521;52.020;-1.740;2024-03-02T06:50:06;96976.81;;;0.38;100.00
51452;BME280;37521;52.020;-1.740;2024-03-02T06:52:36;96975.97;;;0.38;100.00
51452;BME280;37521;52.020;-1.740;2024-03-02T06:55:06;96974.22;;;0.38;100.00
51452;BME280;37521;52.020;-1.740;2024-03-02T06:57:37;96963.59;;;0.43;100.00
51452;BME280;37521;52.020;-1.740;2024-03-02T07:00:06;96967.63;;;0.48;100.00
51452;BME280;37521;52.020;-1.740;2024-03-02T07:02:36;96959.41;;;0.56;100.00
51452;BME280;37521;52.020;-1.740;2024-03-02T07:05:05;96962.59;;;0.61;100.00
51452;BME280;37521;52.020;-1.740;2024-03-02T07:07:34;96963.09;;;0.68;100.00
51452;BME280;37521;52.020;-1.740;2024-03-02T07:10:04;96961.81;;;0.75;100.00
51452;BME280;37521;52.020;-1.740;2024-03-02T07:12:34;96964.91;;;0.81;100.00
51452;BME280;37521;52.020;-1.740;2024-03-02T07:15:06;96959.19;;;0.91;100.00
51452;BME280;37521;52.020;-1.740;2024-03-02T07:17:51;96962.69;;;1.05;100.00
51452;BME280;37521;52.020;-1.740;2024-03-02T07:20:20;96962.19;;;1.15;100.00
51452;BME280;37521;52.020;-1.740;2024-03-02T07:22:49;96956.78;;;1.18;100.00
51452;BME280;37521;52.020;-1.740;2024-03-02T07:25:18;96957.47;;;1.21;100.00
51452;BME280;37521;52.020;-1.740;2024-03-02T07:27:49;96955.59;;;1.23;100.00
51452;BME280;37521;52.020;-1.740;2024-03-02T07:30:21;96955.34;;;1.28;100.00
51452;BME280;37521;52.020;-1.740;2024-03-02T07:32:50;96953.50;;;1.30;100.00
51452;BME280;37521;52.020;-1.740;2024-03-02T07:35:19;96953.28;;;1.33;100.00
51452;BME280;37521;52.020;-1.740;2024-03-02T07:37:49;96951.38;;;1.36;100.00
51452;BME280;37521;52.020;-1.740;2024-03-02T07:40:18;96953.03;;;1.38;100.00
51452;BME280;37521;52.020;-1.740;2024-03-02T07:42:47;96953.72;;;1.41;100.00
51452;BME280;37521;52.020;-1.740;2024-03-02T07:45:16;96944.78;;;1.45;100.00
51452;BME280;37521;52.020;-1.740;2024-03-02T07:47:46;96945.63;;;1.46;100.00
51452;BME280;37521;52.020;-1.740;2024-03-02T07:50:15;96942.09;;;1.47;100.00
51452;BME280;37521;52.020;-1.740;2024-03-02T07:52:44;96951.50;;;1.49;100.00
51452;BME280;37521;52.020;-1.740;2024-03-02T07:55:13;96942.75;;;1.50;100.00
51452;BME280;37521;52.020;-1.740;2024-03-02T07:57:41;96951.28;;;1.52;100.00
51452;BME280;37521;52.020;-1.740;2024-03-02T08:00:11;96952.97;;;1.53;100.00
51452;BME280;37521;52.020;-1.740;2024-03-02T08:02:41;96957.16;;;1.56;100.00
51452;BME280;37521;52.020;-1.740;2024-03-02T08:05:12;96959.66;;;1.57;100.00
51452;BME280;37521;52.020;-1.740;2024-03-02T08:07:40;96970.06;;;1.57;100.00
51452;BME280;37521;52.020;-1.740;2024-03-02T08:10:09;96981.56;;;1.53;100.00
51452;BME280;37521;52.020;-1.740;2024-03-02T08:12:38;96991.78;;;1.42;100.00
51452;BME280;37521;52.020;-1.740;2024-03-02T08:15:08;96990.47;;;1.19;100.00
51452;BME280;37521;52.020;-1.740;2024-03-02T08:17:37;96997.72;;;0.98;100.00
51452;BME280;37521;52.020;-1.740;2024-03-02T08:20:08;96991.53;;;0.85;100.00
51452;BME280;37521;52.020;-1.740;2024-03-02T08:22:39;96997.66;;;0.84;100.00
51452;BME280;37521;52.020;-1.740;2024-03-02T08:25:08;97003.09;;;0.79;100.00
51452;BME280;37521;52.020;-1.740;2024-03-02T08:27:37;97012.50;;;0.82;100.00
51452;BME280;37521;52.020;-1.740;2024-03-02T08:30:07;97014.50;;;0.77;100.00
51452;BME280;37521;52.020;-1.740;2024-03-02T08:32:38;97017.03;;;0.63;100.00
51452;BME280;37521;52.020;-1.740;2024-03-02T08:35:08;97021.75;;;0.39;100.00
51452;BME280;37521;52.020;-1.740;2024-03-02T08:37:39;97037.00;;;0.29;100.00
51452;BME280;37521;52.020;-1.740;2024-03-02T08:40:09;97039.41;;;0.16;100.00
51452;BME280;37521;52.020;-1.740;2024-03-02T08:42:42;97031.63;;;-0.01;100.00
51452;BME280;37521;52.020;-1.740;2024-03-02T08:45:11;97038.53;;;0.00;100.00
51452;BME280;37521;52.020;-1.740;2024-03-02T08:47:40;97037.66;;;-0.01;100.00
51452;BME280;37521;52.020;-1.740;2024-03-02T08:50:09;97044.91;;;-0.07;100.00
51452;BME280;37521;52.020;-1.740;2024-03-02T08:52:39;97054.53;;;-0.09;100.00
51452;BME280;37521;52.020;-1.740;2024-03-02T08:55:08;97059.06;;;-0.13;100.00
51452;BME280;37521;52.020;-1.740;2024-03-02T08:57:38;97056.63;;;-0.33;100.00
51452;BME280;37521;52.020;-1.740;2024-03-02T09:00:08;97062.00;;;-0.55;100.00
51452;BME280;37521;52.020;-1.740;2024-03-02T09:02:37;97067.56;;;-0.63;100.00
51452;BME280;37521;52.020;-1.740;2024-03-02T09:05:07;97057.13;;;-0.61;100.00
51452;BME280;37521;52.020;-1.740;2024-03-02T09:07:36;97064.69;;;-0.57;100.00
51452;BME280;37521;52.020;-1.740;2024-03-02T09:10:08;97064.56;;;-0.53;100.00
51452;BME280;37521;52.020;-1.740;2024-03-02T09:12:38;97062.72;;;-0.51;100.00
51452;BME280;37521;52.020;-1.740;2024-03-02T09:15:07;97066.75;;;-0.46;100.00
51452;BME280;37521;52.020;-1.740;2024-03-02T09:17:36;97079.47;;;-0.41;100.00
51452;BME280;37521;52.020;-1.740;2024-03-02T09:20:05;97087.94;;;-0.55;100.00
51452;BME280;37521;52.020;-1.740;2024-03-02T09:22:34;97090.38;;;-0.52;100.00
51452;BME280;37521;52.020;-1.740;2024-03-02T09:25:03;97096.50;;;-0.53;100.00
51452;BME280;37521;52.020;-1.740;2024-03-02T09:27:37;97102.72;;;-0.57;100.00
51452;BME280;37521;52.020;-1.740;2024-03-02T09:30:08;97105.22;;;-0.56;100.00
51452;BME280;37521;52.020;-1.740;2024-03-02T09:32:37;97100.78;;;-0.71;100.00
51452;BME280;37521;52.020;-1.740;2024-03-02T09:35:07;97111.53;;;-0.61;100.00
51452;BME280;37521;52.020;-1.740;2024-03-02T09:37:36;97117.66;;;-0.62;100.00
51452;BME280;37521;52.020;-1.740;2024-03-02T09:40:06;97129.41;;;-0.74;100.00
51452;BME280;37521;52.020;-1.740;2024-03-02T09:42:35;97113.13;;;-0.76;100.00
51452;BME280;37521;52.020;-1.740;2024-03-02T09:45:06;97122.28;;;-0.69;100.00
51452;BME280;37521;52.020;-1.740;2024-03-02T09:47:35;97126.06;;;-0.76;100.00
51452;BME280;37521;52.020;-1.740;2024-03-02T09:50:05;97116.13;;;-0.66;100.00
51452;BME280;37521;52.020;-1.740;2024-03-02T09:52:35;97137.97;;;-0.72;100.00
51452;BME280;37521;52.020;-1.740;2024-03-02T09:55:05;97132.81;;;-0.72;100.00
51452;BME280;37521;52.020;-1.740;2024-03-02T09:57:34;97132.25;;;-0.78;100.00
51452;BME280;37521;52.020;-1.740;2024-03-02T10:00:08;97146.44;;;-0.87;100.00
51452;BME280;37521;52.020;-1.740;2024-03-02T10:02:42;97150.88;;;-0.89;100.00
51452;BME280;37521;52.020;-1.740;2024-03-02T10:05:11;97151.41;;;-0.83;100.00
51452;BME280;37521;52.020;-1.740;2024-03-02T10:07:40;97150.47;;;-0.80;100.00
51452;BME280;37521;52.020;-1.740;2024-03-02T10:10:13;97155.47;;;-0.77;100.00
51452;BME280;37521;52.020;-1.740;2024-03-02T10:12:42;97153.25;;;-0.66;100.00
51452;BME280;37521;52.020;-1.740;2024-03-02T10:15:12;97154.19;;;-0.68;100.00
51452;BME280;37521;52.020;-1.740;2024-03-02T10:17:41;97159.53;;;-0.71;100.00
51452;BME280;37521;52.020;-1.740;2024-03-02T10:20:23;97159.94;;;-0.62;100.00
51452;BME280;37521;52.020;-1.740;2024-03-02T10:22:52;97175.47;;;-0.43;100.00
51452;BME280;37521;52.020;-1.740;2024-03-02T10:25:31;97172.66;;;-0.38;100.00
51452;BME280;37521;52.020;-1.740;2024-03-02T10:28:17;97165.63;;;-0.36;100.00
51452;BME280;37521;52.020;-1.740;2024-03-02T10:30:48;97180.34;;;-0.37;100.00
51452;BME280;37521;52.020;-1.740;2024-03-02T10:33:19;97185.25;;;-0.31;100.00
51452;BME280;37521;52.020;-1.740;2024-03-02T10:35:49;97184.50;;;-0.33;100.00
51452;BME280;37521;52.020;-1.740;2024-03-02T10:38:18;97182.56;;;-0.29;100.00
51452;BME280;37521;52.020;-1.740;2024-03-02T10:40:48;97183.13;;;-0.22;100.00
51452;BME280;37521;52.020;-1.740;2024-03-02T10:43:17;97186.41;;;-0.19;100.00
51452;BME280;37521;52.020;-1.740;2024-03-02T10:45:50;97188.84;;;-0.16;100.00
51452;BME280;37521;52.020;-1.740;2024-03-02T10:48:21;97199.31;;;-0.17;100.00
51452;BME280;37521;52.020;-1.740;2024-03-02T10:50:49;97195.56;;;-0.12;100.00
51452;BME280;37521;52.020;-1.740;2024-03-02T10:53:18;97196.13;;;-0.05;100.00
51452;BME280;37521;52.020;-1.740;2024-03-02T10:55:50;97206.34;;;0.15;100.00
51452;BME280;37521;52.020;-1.740;2024-03-02T10:58:23;97218.94;;;0.23;100.00
51452;BME280;37521;52.020;-1.740;2024-03-02T11:00:56;97210.09;;;0.27;100.00
51452;BME280;37521;52.020;-1.740;2024-03-02T11:03:29;97216.13;;;0.28;100.00
51452;BME280;37521;52.020;-1.740;2024-03-02T11:06:03;97211.78;;;0.28;100.00
51452;BME280;37521;52.020;-1.740;2024-03-02T11:08:35;97211.75;;;0.45;100.00
51452;BME280;37521;52.020;-1.740;2024-03-02T11:11:11;97209.94;;;0.47;100.00
51452;BME280;37521;52.020;-1.740;2024-03-02T11:13:49;97212.53;;;0.47;100.00
51452;BME280;37521;52.020;-1.740;2024-03-02T11:16:27;97216.81;;;0.48;100.00
51452;BME280;37521;52.020;-1.740;2024-03-02T11:19:04;97208.25;;;0.46;100.00
51452;BME280;37521;52.020;-1.740;2024-03-02T11:21:34;97212.53;;;0.47;100.00
51452;BME280;37521;52.020;-1.740;2024-03-02T11:24:30;97221.53;;;0.58;100.00
51452;BME280;37521;52.020;-1.740;2024-03-02T11:27:05;97230.06;;;0.60;100.00
51452;BME280;37521;52.020;-1.740;2024-03-02T11:29:44;97226.56;;;0.61;100.00
51452;BME280;37521;52.020;-1.740;2024-03-02T11:32:16;97228.25;;;0.62;100.00
51452;BME280;37521;52.020;-1.740;2024-03-02T11:34:46;97229.44;;;0.72;100.00
51452;BME280;37521;52.020;-1.740;2024-03-02T11:37:17;97225.38;;;1.01;100.00
51452;BME280;37521;52.020;-1.740;2024-03-02T11:39:49;97232.09;;;1.21;100.00
51452;BME280;37521;52.020;-1.740;2024-03-02T11:42:18;97230.34;;;1.37;100.00
51452;BME280;37521;52.020;-1.740;2024-03-02T11:44:48;97229.28;;;1.41;100.00
51452;BME280;37521;52.020;-1.740;2024-03-02T11:47:19;97237.31;;;1.52;100.00
51452;BME280;37521;52.020;-1.740;2024-03-02T11:49:50;97228.75;;;1.50;100.00
51452;BME280;37521;52.020;-1.740;2024-03-02T11:52:19;97228.84;;;1.49;100.00
51452;BME280;37521;52.020;-1.740;2024-03-02T11:54:48;97241.53;;;1.55;100.00
51452;BME280;37521;52.020;-1.740;2024-03-02T11:57:20;97228.25;;;1.59;100.00
51452;BME280;37521;52.020;-1.740;2024-03-02T11:59:50;97244.44;;;1.64;100.00
51452;BME280;37521;52.020;-1.740;2024-03-02T12:02:21;97230.44;;;1.67;100.00
51452;BME280;37521;52.020;-1.740;2024-03-02T12:04:50;97231.63;;;1.61;100.00
51452;BME280;37521;52.020;-1.740;2024-03-02T12:07:19;97228.94;;;1.63;100.00
51452;BME280;37521;52.020;-1.740;2024-03-02T12:09:59;97229.59;;;1.67;100.00
51452;BME280;37521;52.020;-1.740;2024-03-02T12:12:29;97230.94;;;1.74;100.00
51452;BME280;37521;52.020;-1.740;2024-03-02T12:14:58;97235.78;;;1.80;100.00
51452;BME280;37521;52.020;-1.740;2024-03-02T12:17:29;97242.69;;;1.65;100.00
51452;BME280;37521;52.020;-1.740;2024-03-02T12:19:58;97239.16;;;1.50;100.00
51452;BME280;37521;52.020;-1.740;2024-03-02T12:22:31;97245.94;;;1.37;100.00
51452;BME280;37521;52.020;-1.740;2024-03-02T12:24:59;97248.72;;;1.34;100.00
51452;BME280;37521;52.020;-1.740;2024-03-02T12:27:28;97255.59;;;1.35;100.00
51452;BME280;37521;52.020;-1.740;2024-03-02T12:29:57;97249.56;;;1.34;100.00
51452;BME280;37521;52.020;-1.740;2024-03-02T12:32:26;97249.94;;;1.27;100.00
51452;BME280;37521;52.020;-1.740;2024-03-02T12:34:56;97255.00;;;1.30;100.00
51452;BME280;37521;52.020;-1.740;2024-03-02T12:37:25;97246.72;;;1.55;100.00
51452;BME280;37521;52.020;-1.740;2024-03-02T12:39:54;97244.34;;;1.66;100.00
51452;BME280;37521;52.020;-1.740;2024-03-02T12:42:24;97242.84;;;1.78;100.00
51452;BME280;37521;52.020;-1.740;2024-03-02T12:44:53;97248.41;;;1.87;100.00
51452;BME280;37521;52.020;-1.740;2024-03-02T12:47:22;97255.19;;;1.90;100.00
51452;BME280;37521;52.020;-1.740;2024-03-02T12:49:52;97248.72;;;1.97;100.00
51452;BME280;37521;52.020;-1.740;2024-03-02T12:52:23;97245.53;;;1.92;100.00
51452;BME280;37521;52.020;-1.740;2024-03-02T12:54:52;97250.31;;;1.84;100.00
51452;BME280;37521;52.020;-1.740;2024-03-02T12:57:25;97256.09;;;1.73;100.00
51452;BME280;37521;52.020;-1.740;2024-03-02T12:59:58;97260.97;;;1.63;100.00
51452;BME280;37521;52.020;-1.740;2024-03-02T13:02:28;97258.63;;;1.59;100.00